Accueil
METAR-TAF:

METAR-TAF

Aéroports :

Vitoria, Espagne

Aéroport de Vitoria-Gasteiz

latitude: 42-53N, longitude: 002-43W, altitude: 513 m

Observation

Le bulletin a été fait il y a 22 minutes, à 01:30 UTC
Vent 2 kt de direction variable
Température 16°C
Humidité 94%
Pression 1025 hPa
Visibilité 10 km ou plus
Nuages épars à une hauteur de 800 ft
Ciel couvert à une hauteur de 1600 ft

METAR: LEVT 240130Z VRB02KT 9999 SCT008 OVC016 16/15 Q1025

Heure: 03:52 (01:52 UTC)

Prévision

Le bulletin a été fait il y a 8 heures et 52 minutes, à 17:00 UTC
Prévision valable du 23 à 18 UTC au 24 à 18 UTC
Vent 7 kt de nord
Visibilité 10 km ou plus
Nuages épars à une hauteur de 1000 ft
Nuages fragmentés à une hauteur de 2500 ft
Probabilité 40% :
Temporairement
du 23 à 22 UTC au 24 à 08 UTC
Nuages fragmentés à une hauteur de 1000 ft

TAF: LEVT 231700Z 2318/2418 36007KT 9999 SCT010 BKN025 TX24/2414Z TN14/2405Z PROB40 TEMPO 2322/2408 BKN010

Observations et prévisions météorologiques de plus de 4000 aéroports (messages METAR et TAF).

Les stations disponibles sont représentées par des disques jaunes et rouges sur la carte.

Passer la souris dessus pour voir le nom de la station.

Cliquer dessus pour voir les observations et prévisions météorologiques.

Pour changer de carte: cliquez sur les boutons verts avec une croix noire pour zoomer, sur le bouton vert avec un tiret pour effectuer un zoom arrière, ou sur les flèches vertes pour les cartes adjacentes.


METAR-TAF: